Time;durP1;ratioP1;P1;durP2;ratioP2;P2;SDS_P1;SDS_P2;PMS_P1;PMS_P2;Temp;Humidity;BMP_temperature;BMP_pressure;BME280_temperature;BME280_humidity;BME280_pressure;Samples;Min_cycle;Max_cycle;Signal;HPM_P1;HPM_P2
2022/03/05 06:00:08;;;;;;;15.17;13.53;;;3.50;97.20;;;;;;1729935;28;20180;-86
2022/03/05 06:00:59;;;;;;;16.15;13.77;;;3.50;97.20;;;;;;1729080;28;20193;-85
2022/03/05 06:01:51;;;;;;;14.03;12.53;;;3.50;97.20;;;;;;1729613;28;20231;-86
2022/03/05 06:02:41;;;;;;;14.85;13.07;;;3.40;97.20;;;;;;1729755;28;20283;-86
2022/03/05 06:03:33;;;;;;;15.50;13.50;;;3.40;97.20;;;;;;1729400;28;20220;-86
2022/03/05 06:04:24;;;;;;;14.80;13.20;;;3.50;97.20;;;;;;1729576;28;20205;-86
2022/03/05 06:05:15;;;;;;;14.80;12.87;;;3.50;97.20;;;;;;1729571;28;20208;-86
2022/03/05 06:06:06;;;;;;;15.20;13.70;;;3.50;97.20;;;;;;1729873;28;20251;-86
2022/03/05 06:06:58;;;;;;;15.40;13.87;;;3.50;97.20;;;;;;1729771;28;20201;-86
2022/03/05 06:07:49;;;;;;;15.30;13.70;;;3.50;97.20;;;;;;1729701;28;20209;-86
2022/03/05 06:08:41;;;;;;;15.43;13.85;;;3.50;97.20;;;;;;1729285;28;20201;-85
2022/03/05 06:09:32;;;;;;;14.82;13.18;;;3.50;97.20;;;;;;1730042;28;20576;-86
2022/03/05 06:10:23;;;;;;;15.90;13.80;;;3.50;97.20;;;;;;1729309;28;20577;-86
2022/03/05 06:11:15;;;;;;;14.75;13.20;;;3.50;97.20;;;;;;1724879;28;20212;-86
2022/03/05 06:12:08;;;;;;;15.75;14.05;;;3.50;97.20;;;;;;1729322;28;20207;-85
2022/03/05 06:12:59;;;;;;;14.65;13.13;;;3.40;97.20;;;;;;1729517;28;20208;-86
2022/03/05 06:13:51;;;;;;;15.10;13.70;;;3.50;97.20;;;;;;1729478;28;20224;-86
2022/03/05 06:14:42;;;;;;;14.68;13.18;;;3.40;97.20;;;;;;1730039;28;20204;-86
2022/03/05 06:15:35;;;;;;;15.23;13.73;;;3.40;97.20;;;;;;1728998;28;20296;-85
2022/03/05 06:16:26;;;;;;;15.43;13.82;;;3.40;97.20;;;;;;1729874;28;20229;-85
2022/03/05 06:17:17;;;;;;;16.43;14.73;;;3.50;97.20;;;;;;1729390;28;20207;-85
2022/03/05 06:18:08;;;;;;;15.77;13.45;;;3.50;97.20;;;;;;1729595;28;20471;-85
2022/03/05 06:19:00;;;;;;;15.07;13.50;;;3.50;97.20;;;;;;1729238;28;20210;-85
2022/03/05 06:19:50;;;;;;;16.23;14.35;;;3.50;97.20;;;;;;1729805;28;20219;-86
2022/03/05 06:20:42;;;;;;;15.70;14.00;;;3.50;97.20;;;;;;1729006;28;20215;-86
2022/03/05 06:21:33;;;;;;;16.30;13.32;;;3.50;97.20;;;;;;1723074;28;20593;-86
2022/03/05 06:22:25;;;;;;;16.90;15.10;;;3.50;97.20;;;;;;1722794;28;20572;-86
2022/03/05 06:23:17;;;;;;;15.60;14.07;;;3.50;97.20;;;;;;1722902;28;20267;-86
2022/03/05 06:24:09;;;;;;;16.50;14.75;;;3.50;97.20;;;;;;1722620;28;20197;-85
2022/03/05 06:25:00;;;;;;;15.13;13.63;;;3.50;97.20;;;;;;1722833;28;20719;-85
2022/03/05 06:25:52;;;;;;;14.93;13.10;;;3.40;97.20;;;;;;1722693;28;20208;-85
2022/03/05 06:26:43;;;;;;;14.35;12.95;;;3.40;97.20;;;;;;1723019;28;20259;-85
2022/03/05 06:27:35;;;;;;;15.50;13.90;;;3.40;97.20;;;;;;1722853;28;20197;-86
2022/03/05 06:28:27;;;;;;;15.23;13.55;;;3.40;97.20;;;;;;1722590;28;20468;-86
2022/03/05 06:29:19;;;;;;;16.38;14.45;;;3.40;97.20;;;;;;1722316;28;20197;-86
2022/03/05 06:30:11;;;;;;;15.25;13.60;;;3.40;97.20;;;;;;1723038;28;20212;-85
2022/03/05 06:31:04;;;;;;;15.52;13.88;;;3.50;97.20;;;;;;1725364;28;20302;-85
2022/03/05 06:31:58;;;;;;;16.75;14.95;;;3.50;97.20;;;;;;1729652;28;20209;-85
2022/03/05 06:32:49;;;;;;;15.40;13.90;;;3.40;97.20;;;;;;1729807;28;20239;-86
2022/03/05 06:33:43;;;;;;;15.80;14.10;;;3.50;97.20;;;;;;1729114;28;20270;-85
2022/03/05 06:34:33;;;;;;;16.02;14.40;;;3.50;97.20;;;;;;1729492;28;20574;-85
2022/03/05 06:35:25;;;;;;;18.30;15.97;;;3.50;97.20;;;;;;1729496;28;20192;-85
2022/03/05 06:36:16;;;;;;;18.08;15.45;;;3.50;97.20;;;;;;1729621;28;20235;-85
2022/03/05 06:37:08;;;;;;;18.37;16.47;;;3.50;97.20;;;;;;1728962;28;20200;-85
2022/03/05 06:37:58;;;;;;;18.05;15.80;;;3.60;97.20;;;;;;1729309;28;20825;-86
2022/03/05 06:38:50;;;;;;;17.33;15.50;;;3.60;97.20;;;;;;1728951;28;20612;-86
2022/03/05 06:39:41;;;;;;;18.92;16.15;;;3.60;97.20;;;;;;1729195;28;20208;-86
2022/03/05 06:40:33;;;;;;;19.60;17.33;;;3.70;97.20;;;;;;1729416;28;20283;-86
2022/03/05 06:41:24;;;;;;;16.98;14.88;;;3.70;97.20;;;;;;1723710;28;20212;-86
2022/03/05 06:42:16;;;;;;;16.92;15.15;;;3.70;97.20;;;;;;1722402;28;20225;-86
2022/03/05 06:43:06;;;;;;;18.02;16.13;;;3.80;97.20;;;;;;1722846;28;20212;-86
2022/03/05 06:43:58;;;;;;;17.60;15.80;;;3.80;97.20;;;;;;1722117;28;20211;-86
2022/03/05 06:44:50;;;;;;;18.25;16.45;;;3.80;97.20;;;;;;1722796;28;20229;-86
2022/03/05 06:45:41;;;;;;;18.83;16.85;;;3.80;97.20;;;;;;1722487;28;20664;-85
2022/03/05 06:46:33;;;;;;;17.75;15.95;;;3.80;97.20;;;;;;1722378;28;20227;-85
2022/03/05 06:47:25;;;;;;;19.23;15.55;;;3.90;97.20;;;;;;1722889;28;20284;-85
2022/03/05 06:48:16;;;;;;;17.77;15.98;;;3.90;97.20;;;;;;1722459;28;20205;-85
2022/03/05 06:49:08;;;;;;;17.93;15.77;;;3.90;97.20;;;;;;1722206;28;20661;-85
2022/03/05 06:49:58;;;;;;;18.33;16.38;;;3.90;97.20;;;;;;1722358;28;20239;-85
2022/03/05 06:50:50;;;;;;;18.63;16.10;;;3.90;97.20;;;;;;1722501;28;20209;-84
2022/03/05 06:51:41;;;;;;;18.65;16.60;;;3.90;97.20;;;;;;1728855;28;20440;-85
2022/03/05 06:52:33;;;;;;;19.23;17.30;;;3.90;97.20;;;;;;1728429;28;20231;-85
2022/03/05 06:53:24;;;;;;;18.90;16.90;;;4.00;97.20;;;;;;1729136;28;20231;-85
2022/03/05 06:54:16;;;;;;;19.90;17.88;;;4.00;97.20;;;;;;1728930;28;20660;-85
2022/03/05 06:55:08;;;;;;;18.88;16.88;;;4.00;97.20;;;;;;1729470;28;20205;-86
2022/03/05 06:56:00;;;;;;;18.65;16.65;;;4.00;97.20;;;;;;1729332;28;20223;-85
2022/03/05 06:56:50;;;;;;;18.77;16.77;;;4.00;97.20;;;;;;1729714;28;20200;-86
2022/03/05 06:57:42;;;;;;;20.30;15.93;;;4.00;97.20;;;;;;1729599;28;20204;-86
2022/03/05 06:58:33;;;;;;;19.58;17.50;;;4.10;97.20;;;;;;1729285;28;20200;-86
2022/03/05 06:59:25;;;;;;;18.90;16.90;;;4.10;97.20;;;;;;1729621;28;20260;-86
2022/03/05 07:00:16;;;;;;;21.40;18.10;;;4.10;97.20;;;;;;1724388;28;20212;-85
2022/03/05 07:01:08;;;;;;;19.75;17.75;;;4.10;97.20;;;;;;1722544;28;20723;-85
2022/03/05 07:02:00;;;;;;;22.77;17.83;;;4.10;97.20;;;;;;1722791;28;20201;-85
2022/03/05 07:02:52;;;;;;;19.52;17.40;;;4.20;97.20;;;;;;1722748;28;20262;-86
2022/03/05 07:03:42;;;;;;;20.20;17.95;;;4.20;97.20;;;;;;1722923;28;20221;-85
2022/03/05 07:04:34;;;;;;;19.97;17.33;;;4.20;97.20;;;;;;1722329;28;20197;-85
2022/03/05 07:05:25;;;;;;;20.48;18.38;;;4.30;97.20;;;;;;1722292;28;20677;-86
2022/03/05 07:06:17;;;;;;;21.80;18.73;;;4.30;97.20;;;;;;1722165;28;20201;-86
2022/03/05 07:07:08;;;;;;;20.00;16.80;;;4.30;97.20;;;;;;1722512;28;20235;-86
2022/03/05 07:08:00;;;;;;;18.43;16.50;;;4.40;97.20;;;;;;1722157;28;20201;-86
2022/03/05 07:08:50;;;;;;;20.65;17.90;;;4.40;97.20;;;;;;1722166;28;20444;-85
2022/03/05 07:09:42;;;;;;;22.33;17.83;;;4.40;97.20;;;;;;1722043;28;20205;-85
2022/03/05 07:10:33;;;;;;;19.60;17.50;;;4.40;97.20;;;;;;1724780;28;20261;-85
2022/03/05 07:11:25;;;;;;;21.03;17.90;;;4.50;97.20;;;;;;1722249;28;20680;-85
2022/03/05 07:12:16;;;;;;;20.13;17.58;;;4.50;97.20;;;;;;1722564;28;20209;-85
2022/03/05 07:13:07;;;;;;;22.60;17.97;;;4.50;97.20;;;;;;1721848;28;20201;-85
2022/03/05 07:13:59;;;;;;;34.50;18.98;;;4.50;97.20;;;;;;1722454;28;20672;-86
2022/03/05 07:14:50;;;;;;;20.65;17.60;;;4.50;97.20;;;;;;1722081;28;20212;-85
2022/03/05 07:15:41;;;;;;;20.60;17.35;;;4.60;97.20;;;;;;1722389;28;20232;-86
2022/03/05 07:16:33;;;;;;;22.10;18.57;;;4.60;97.20;;;;;;1722115;28;20201;-86
2022/03/05 07:17:25;;;;;;;21.30;18.20;;;4.60;97.20;;;;;;1722524;28;20208;-86
2022/03/05 07:18:17;;;;;;;22.10;19.27;;;4.70;97.20;;;;;;1722221;28;20209;-86
2022/03/05 07:19:08;;;;;;;22.40;18.60;;;4.70;97.20;;;;;;1722459;28;20229;-85
2022/03/05 07:19:59;;;;;;;21.00;17.97;;;4.70;97.20;;;;;;1721891;28;20205;-85
2022/03/05 07:20:51;;;;;;;21.58;18.52;;;4.80;97.20;;;;;;1722194;28;20208;-86
2022/03/05 07:21:42;;;;;;;21.95;17.50;;;4.80;97.20;;;;;;1722162;28;20205;-86
2022/03/05 07:22:33;;;;;;;20.30;17.77;;;4.80;97.20;;;;;;1721772;28;20252;-86
2022/03/05 07:23:24;;;;;;;22.58;18.50;;;4.80;97.20;;;;;;1722341;28;20252;-86
2022/03/05 07:24:16;;;;;;;21.50;18.70;;;4.80;97.20;;;;;;1722213;28;20205;-86
2022/03/05 07:25:08;;;;;;;22.75;18.75;;;4.80;97.20;;;;;;1722210;28;20483;-86
2022/03/05 07:26:00;;;;;;;23.95;17.90;;;4.90;97.20;;;;;;1722181;28;20524;-86
2022/03/05 07:26:51;;;;;;;19.95;17.85;;;4.90;97.20;;;;;;1722223;28;20224;-86
2022/03/05 07:27:43;;;;;;;21.57;17.90;;;4.90;97.20;;;;;;1722110;28;20775;-86
2022/03/05 07:28:33;;;;;;;19.90;17.77;;;4.90;97.20;;;;;;1722173;28;20201;-85
2022/03/05 07:29:25;;;;;;;20.40;17.83;;;5.00;97.20;;;;;;1722296;28;20198;-86
2022/03/05 07:30:16;;;;;;;22.02;17.00;;;5.00;97.20;;;;;;1726086;28;20479;-86
2022/03/05 07:31:08;;;;;;;20.80;17.57;;;5.00;97.20;;;;;;1728507;28;20226;-86
2022/03/05 07:31:59;;;;;;;20.40;17.60;;;5.10;97.20;;;;;;1728830;28;20204;-86
2022/03/05 07:32:52;;;;;;;21.90;18.13;;;5.10;97.20;;;;;;1728773;28;20207;-86
2022/03/05 07:33:43;;;;;;;20.65;17.45;;;5.10;97.20;;;;;;1728781;28;20468;-86
2022/03/05 07:34:34;;;;;;;19.17;17.03;;;5.20;97.20;;;;;;1728663;28;20281;-86
2022/03/05 07:35:25;;;;;;;20.58;17.80;;;5.20;97.20;;;;;;1729168;28;20450;-86
2022/03/05 07:36:17;;;;;;;19.73;16.90;;;5.20;97.20;;;;;;1728828;28;20200;-86
2022/03/05 07:37:07;;;;;;;19.33;17.23;;;5.20;97.20;;;;;;1728712;28;20660;-86
2022/03/05 07:37:59;;;;;;;20.90;18.70;;;5.20;97.20;;;;;;1728502;28;20575;-86
2022/03/05 07:38:51;;;;;;;18.70;16.70;;;5.30;97.20;;;;;;1728768;28;20220;-86
2022/03/05 07:39:43;;;;;;;18.48;16.50;;;5.30;97.20;;;;;;1728255;28;20231;-86
2022/03/05 07:40:34;;;;;;;22.63;18.40;;;5.30;97.20;;;;;;1722555;28;20615;-86
2022/03/05 07:41:25;;;;;;;22.80;17.67;;;5.30;97.20;;;;;;1721484;28;20244;-86
2022/03/05 07:42:16;;;;;;;22.50;18.40;;;5.40;97.20;;;;;;1722175;28;20669;-86
2022/03/05 07:43:08;;;;;;;21.03;18.37;;;5.40;97.20;;;;;;1721762;28;20543;-86
2022/03/05 07:43:58;;;;;;;21.23;17.85;;;5.50;97.20;;;;;;1722026;28;20239;-86
2022/03/05 07:44:51;;;;;;;19.00;16.60;;;5.50;97.20;;;;;;1721685;28;20208;-86
2022/03/05 07:45:41;;;;;;;20.33;17.85;;;5.50;97.20;;;;;;1722106;28;20244;-86
2022/03/05 07:46:33;;;;;;;22.83;18.13;;;5.60;97.20;;;;;;1721786;28;20197;-86
2022/03/05 07:47:24;;;;;;;17.70;15.80;;;5.60;97.20;;;;;;1722059;28;20606;-86
2022/03/05 07:48:19;;;;;;;21.50;17.40;;;5.60;97.20;;;;;;1721263;28;20232;-86
2022/03/05 07:49:10;;;;;;;19.20;16.60;;;5.70;97.20;;;;;;1722392;28;20542;-86
2022/03/05 07:50:02;;;;;;;19.10;17.10;;;5.70;97.20;;;;;;1723535;28;20207;-86
2022/03/05 07:50:53;;;;;;;21.73;17.67;;;5.70;97.20;;;;;;1728803;28;20232;-86
2022/03/05 07:51:44;;;;;;;17.80;15.90;;;5.80;97.20;;;;;;1728268;28;20674;-86
2022/03/05 07:52:35;;;;;;;20.67;17.52;;;5.80;97.20;;;;;;1728979;28;20455;-86
2022/03/05 07:53:27;;;;;;;21.10;17.77;;;5.80;97.20;;;;;;1728310;28;20224;-86
2022/03/05 07:54:18;;;;;;;20.77;16.83;;;5.80;97.20;;;;;;1728825;28;20204;-86
2022/03/05 07:55:10;;;;;;;18.75;16.75;;;5.80;97.20;;;;;;1728489;28;20204;-86
2022/03/05 07:56:01;;;;;;;20.48;17.02;;;5.90;97.20;;;;;;1728978;28;20212;-86
2022/03/05 07:56:53;;;;;;;19.47;17.10;;;5.90;97.20;;;;;;1728637;28;20204;-86
2022/03/05 07:57:43;;;;;;;18.35;16.30;;;6.00;97.20;;;;;;1729076;28;20613;-86
2022/03/05 07:58:35;;;;;;;18.83;16.80;;;6.00;97.20;;;;;;1728247;28;20227;-86
2022/03/05 07:59:26;;;;;;;21.27;16.48;;;6.00;97.20;;;;;;1728829;28;20248;-86
2022/03/05 08:00:18;;;;;;;18.43;16.53;;;6.00;97.20;;;;;;1724400;28;20204;-86
2022/03/05 08:01:08;;;;;;;19.75;17.63;;;6.10;97.20;;;;;;1722022;28;20248;-86
2022/03/05 08:02:00;;;;;;;21.10;17.93;;;6.10;97.20;;;;;;1721805;28;20205;-86
2022/03/05 08:02:51;;;;;;;19.73;16.35;;;6.10;97.20;;;;;;1722066;28;20209;-86
2022/03/05 08:03:44;;;;;;;20.50;18.00;;;6.10;97.20;;;;;;1723183;28;20271;-86
2022/03/05 08:04:35;;;;;;;18.80;16.80;;;6.10;97.20;;;;;;1723454;28;20452;-86
2022/03/05 08:05:27;;;;;;;17.87;16.03;;;6.10;97.20;;;;;;1722909;28;20239;-86
2022/03/05 08:06:17;;;;;;;19.88;17.40;;;6.10;97.20;;;;;;1723271;28;20231;-86
2022/03/05 08:07:09;;;;;;;19.50;17.40;;;6.20;97.20;;;;;;1723281;28;20259;-86
2022/03/05 08:08:00;;;;;;;20.50;18.27;;;6.20;97.20;;;;;;1723325;28;20233;-86
2022/03/05 08:08:52;;;;;;;19.97;17.83;;;6.20;97.20;;;;;;1722690;28;20212;-86
2022/03/05 08:09:43;;;;;;;19.42;17.20;;;6.30;97.20;;;;;;1723048;28;20205;-86
2022/03/05 08:10:35;;;;;;;20.35;17.90;;;6.30;97.20;;;;;;1729032;28;20270;-86
2022/03/05 08:11:26;;;;;;;21.08;17.75;;;6.40;97.20;;;;;;1730115;28;20212;-86
2022/03/05 08:12:17;;;;;;;19.87;17.70;;;6.40;97.20;;;;;;1729927;28;20290;-86
2022/03/05 08:13:08;;;;;;;21.77;17.27;;;6.40;97.20;;;;;;1730094;28;20244;-86
2022/03/05 08:14:00;;;;;;;20.07;17.17;;;6.40;97.20;;;;;;1729885;28;20368;-86
2022/03/05 08:14:51;;;;;;;18.67;16.67;;;6.50;97.20;;;;;;1730311;28;20444;-85
2022/03/05 08:15:42;;;;;;;18.20;15.80;;;6.50;97.20;;;;;;1729690;28;20196;-86
2022/03/05 08:16:33;;;;;;;18.35;16.08;;;6.50;97.20;;;;;;1730058;28;20239;-86
2022/03/05 08:17:26;;;;;;;19.93;17.33;;;6.50;97.20;;;;;;1729713;28;20206;-86
2022/03/05 08:18:17;;;;;;;20.08;17.55;;;6.60;97.20;;;;;;1730045;28;20205;-86
2022/03/05 08:19:10;;;;;;;20.57;17.30;;;6.60;97.20;;;;;;1729443;28;20215;-86
2022/03/05 08:20:01;;;;;;;20.17;17.95;;;6.70;97.20;;;;;;1728551;28;20236;-86
2022/03/05 08:20:53;;;;;;;20.30;16.67;;;6.70;97.20;;;;;;1723112;28;20595;-86
2022/03/05 08:21:44;;;;;;;18.38;15.65;;;6.70;97.20;;;;;;1723564;28;20216;-86
2022/03/05 08:22:36;;;;;;;19.05;16.38;;;6.80;97.20;;;;;;1722965;28;20243;-86
2022/03/05 08:23:28;;;;;;;19.55;16.83;;;6.80;97.20;;;;;;1723300;28;20256;-86
2022/03/05 08:24:18;;;;;;;19.15;16.55;;;6.80;97.20;;;;;;1723134;28;20212;-86
2022/03/05 08:25:10;;;;;;;22.27;17.17;;;6.90;97.20;;;;;;1722715;28;20205;-86
2022/03/05 08:26:01;;;;;;;19.70;16.70;;;6.90;97.20;;;;;;1723281;28;20244;-85
2022/03/05 08:26:53;;;;;;;20.90;15.93;;;6.90;97.20;;;;;;1722926;28;20309;-86
2022/03/05 08:27:44;;;;;;;18.00;16.08;;;6.90;97.20;;;;;;1723471;28;20208;-86
2022/03/05 08:28:36;;;;;;;20.02;16.13;;;7.00;97.20;;;;;;1722246;28;20259;-86
2022/03/05 08:29:26;;;;;;;20.73;17.00;;;7.00;97.20;;;;;;1722792;28;20205;-87
2022/03/05 08:30:18;;;;;;;20.33;16.87;;;7.00;97.20;;;;;;1726294;28;20193;-87
2022/03/05 08:31:09;;;;;;;18.58;16.40;;;7.10;97.20;;;;;;1729970;28;20231;-87
2022/03/05 08:32:01;;;;;;;19.43;16.10;;;7.20;97.20;;;;;;1729464;28;20211;-87
2022/03/05 08:32:52;;;;;;;18.88;16.65;;;7.20;97.20;;;;;;1729809;28;20205;-87
2022/03/05 08:33:43;;;;;;;23.53;16.63;;;7.20;97.20;;;;;;1730473;28;20688;-86
2022/03/05 08:34:36;;;;;;;19.58;16.05;;;7.30;97.20;;;;;;1730355;28;20597;-87
2022/03/05 08:35:28;;;;;;;18.77;16.80;;;7.30;97.20;;;;;;1730021;28;20208;-87
2022/03/05 08:36:18;;;;;;;23.25;16.98;;;7.30;97.20;;;;;;1730110;28;20266;-87
2022/03/05 08:37:10;;;;;;;19.73;17.07;;;7.40;97.20;;;;;;1729617;28;20227;-86
2022/03/05 08:38:01;;;;;;;18.88;15.80;;;7.40;96.90;;;;;;1730052;28;20211;-87
2022/03/05 08:38:52;;;;;;;18.40;15.10;;;7.40;96.90;;;;;;1730604;28;20206;-87
2022/03/05 08:39:43;;;;;;;20.50;17.38;;;7.50;97.10;;;;;;1730197;28;20212;-86
2022/03/05 08:40:35;;;;;;;21.40;16.80;;;7.50;96.80;;;;;;1724782;28;20236;-87
2022/03/05 08:41:26;;;;;;;18.92;16.30;;;7.50;96.80;;;;;;1723659;28;20212;-87
2022/03/05 08:42:18;;;;;;;19.23;16.75;;;7.60;96.80;;;;;;1723019;28;20197;-87
2022/03/05 08:43:08;;;;;;;19.55;16.30;;;7.70;96.80;;;;;;1723431;28;20209;-86
2022/03/05 08:44:00;;;;;;;18.00;16.00;;;7.70;96.50;;;;;;1722950;28;20201;-86
2022/03/05 08:44:51;;;;;;;19.05;16.38;;;7.70;96.30;;;;;;1723050;28;20205;-87
2022/03/05 08:45:43;;;;;;;18.03;16.07;;;7.80;96.30;;;;;;1723087;28;20319;-87
2022/03/05 08:46:34;;;;;;;20.02;15.95;;;7.80;96.30;;;;;;1723123;28;20459;-87
2022/03/05 08:47:25;;;;;;;18.87;16.70;;;7.90;96.00;;;;;;1722672;28;20285;-87
2022/03/05 08:48:16;;;;;;;18.35;15.35;;;7.90;95.70;;;;;;1722522;28;20236;-87
2022/03/05 08:49:08;;;;;;;18.75;16.65;;;7.90;95.80;;;;;;1723059;28;20185;-87
2022/03/05 08:50:00;;;;;;;20.08;17.75;;;7.90;95.90;;;;;;1723146;28;20212;-87
2022/03/05 08:50:52;;;;;;;18.85;16.45;;;8.00;95.80;;;;;;1729785;28;20265;-87
2022/03/05 08:51:44;;;;;;;18.02;15.10;;;8.00;95.90;;;;;;1730924;28;20204;-87
2022/03/05 08:52:36;;;;;;;20.17;16.30;;;8.00;96.00;;;;;;1730178;28;20207;-87
2022/03/05 08:53:27;;;;;;;20.50;16.95;;;8.10;96.10;;;;;;1729830;28;20229;-87
2022/03/05 08:54:20;;;;;;;21.87;18.10;;;8.20;95.90;;;;;;1729108;28;20258;-87
2022/03/05 08:55:13;;;;;;;20.25;17.17;;;8.20;96.40;;;;;;1729718;28;20679;-87
2022/03/05 08:56:05;;;;;;;21.70;16.70;;;8.20;96.10;;;;;;1730116;28;20224;-87
2022/03/05 08:56:56;;;;;;;20.17;17.23;;;8.30;95.90;;;;;;1730193;28;20204;-87
2022/03/05 08:57:47;;;;;;;20.77;16.40;;;8.40;95.50;;;;;;1729212;28;20200;-87
2022/03/05 08:58:38;;;;;;;19.00;16.10;;;8.40;95.30;;;;;;1729549;28;20211;-87
2022/03/05 08:59:30;;;;;;;18.67;16.00;;;8.40;95.20;;;;;;1729438;28;20211;-87
2022/03/05 09:00:21;;;;;;;19.08;17.08;;;8.50;94.90;;;;;;1725859;28;20588;-87
2022/03/05 09:01:13;;;;;;;19.30;15.97;;;8.60;94.80;;;;;;1722604;28;20558;-87
2022/03/05 09:02:04;;;;;;;18.20;15.50;;;8.60;94.30;;;;;;1722929;28;20237;-87
2022/03/05 09:02:55;;;;;;;19.42;17.33;;;8.70;94.00;;;;;;1722771;28;20668;-87
2022/03/05 09:03:46;;;;;;;21.48;16.60;;;8.70;93.90;;;;;;1722580;28;20237;-87
2022/03/05 09:04:38;;;;;;;20.30;16.40;;;8.80;93.90;;;;;;1722688;28;20193;-87
2022/03/05 09:05:30;;;;;;;19.10;16.35;;;8.80;93.60;;;;;;1722615;28;20202;-87
2022/03/05 09:06:22;;;;;;;20.45;16.90;;;8.90;93.40;;;;;;1722830;28;20212;-87
2022/03/05 09:07:12;;;;;;;18.40;15.88;;;9.00;93.40;;;;;;1722738;28;20641;-87
2022/03/05 09:08:05;;;;;;;18.90;16.90;;;9.10;93.50;;;;;;1722263;28;20578;-87
2022/03/05 09:08:56;;;;;;;18.80;15.70;;;9.20;93.80;;;;;;1722919;28;20236;-87
2022/03/05 09:09:48;;;;;;;17.50;15.73;;;9.30;93.50;;;;;;1722158;28;20208;-87
2022/03/05 09:10:39;;;;;;;17.20;15.40;;;9.50;93.00;;;;;;1727727;28;20200;-87
2022/03/05 09:11:31;;;;;;;18.00;15.40;;;9.60;92.90;;;;;;1729462;28;20210;-87
2022/03/05 09:12:22;;;;;;;16.40;14.63;;;9.70;92.80;;;;;;1728982;28;20205;-87
2022/03/05 09:13:14;;;;;;;16.17;14.43;;;9.90;92.70;;;;;;1729186;28;20232;-87
2022/03/05 09:14:05;;;;;;;16.98;15.27;;;10.00;92.10;;;;;;1729823;28;20598;-87
2022/03/05 09:14:56;;;;;;;19.55;16.17;;;10.10;91.50;;;;;;1728016;28;20240;-86
2022/03/05 09:15:47;;;;;;;18.10;15.95;;;10.30;91.30;;;;;;1729456;28;20204;-87
2022/03/05 09:16:40;;;;;;;15.60;14.00;;;10.40;91.40;;;;;;1730307;28;20263;-86
2022/03/05 09:17:31;;;;;;;17.95;14.40;;;10.50;91.40;;;;;;1730727;28;20567;-86
2022/03/05 09:18:23;;;;;;;17.80;14.03;;;10.70;90.80;;;;;;1728910;28;20366;-86
2022/03/05 09:19:14;;;;;;;17.05;14.98;;;10.80;90.50;;;;;;1729052;28;20884;-86
2022/03/05 09:20:06;;;;;;;19.60;15.18;;;10.90;90.50;;;;;;1728356;28;20201;-86
2022/03/05 09:20:59;;;;;;;16.60;14.90;;;11.00;90.30;;;;;;1723313;28;20201;-86
2022/03/05 09:21:50;;;;;;;17.52;15.57;;;11.20;90.00;;;;;;1722649;28;20212;-87
2022/03/05 09:22:42;;;;;;;15.93;14.13;;;11.40;89.80;;;;;;1722328;28;20687;-87
2022/03/05 09:23:33;;;;;;;17.88;15.35;;;11.50;89.20;;;;;;1722411;28;20278;-87
2022/03/05 09:24:25;;;;;;;15.80;14.10;;;11.60;88.80;;;;;;1722509;28;20197;-87
2022/03/05 09:25:15;;;;;;;17.23;15.18;;;11.80;88.00;;;;;;1722691;28;20201;-87
2022/03/05 09:26:07;;;;;;;15.60;14.00;;;11.90;87.50;;;;;;1722142;28;20225;-87
2022/03/05 09:26:58;;;;;;;17.23;14.60;;;12.00;87.40;;;;;;1722344;28;20205;-87
2022/03/05 09:27:50;;;;;;;16.47;14.77;;;12.20;86.90;;;;;;1722358;28;20197;-87
2022/03/05 09:28:40;;;;;;;15.77;14.18;;;12.30;86.70;;;;;;1724480;28;20702;-87
2022/03/05 09:29:32;;;;;;;15.87;14.17;;;12.50;86.40;;;;;;1729367;28;20701;-87
2022/03/05 09:30:23;;;;;;;17.05;15.18;;;12.60;86.10;;;;;;1729312;28;20847;-87
2022/03/05 09:31:15;;;;;;;15.80;14.10;;;12.70;85.40;;;;;;1728979;28;20284;-87
2022/03/05 09:32:08;;;;;;;17.13;15.32;;;12.90;85.40;;;;;;1729252;28;20860;-87
2022/03/05 09:33:00;;;;;;;17.65;15.73;;;13.00;85.50;;;;;;1729304;28;20239;-87
2022/03/05 09:33:51;;;;;;;18.40;16.40;;;13.10;85.20;;;;;;1729431;28;20212;-86
2022/03/05 09:34:43;;;;;;;16.77;15.00;;;13.30;85.30;;;;;;1729205;28;20287;-87
2022/03/05 09:35:34;;;;;;;17.45;15.68;;;13.40;84.90;;;;;;1729289;28;20232;-87
2022/03/05 09:36:27;;;;;;;17.03;15.23;;;13.60;84.60;;;;;;1728894;28;20200;-87
2022/03/05 09:37:18;;;;;;;16.98;15.25;;;13.70;84.20;;;;;;1729354;28;20200;-87
2022/03/05 09:38:10;;;;;;;15.90;14.10;;;13.80;84.00;;;;;;1728572;28;20196;-87
2022/03/05 09:39:00;;;;;;;18.25;15.25;;;13.90;83.80;;;;;;1724035;28;20448;-87
2022/03/05 09:39:53;;;;;;;17.67;15.87;;;14.00;83.30;;;;;;1722031;28;20209;-87
2022/03/05 09:40:44;;;;;;;17.88;15.98;;;14.10;83.00;;;;;;1722626;28;20201;-87
2022/03/05 09:41:38;;;;;;;17.20;15.50;;;14.30;82.70;;;;;;1722600;28;20199;-87
2022/03/05 09:42:29;;;;;;;17.30;15.65;;;14.40;82.40;;;;;;1722189;28;20216;-86
2022/03/05 09:43:22;;;;;;;18.20;16.37;;;14.50;82.10;;;;;;1721905;28;20217;-86
2022/03/05 09:44:13;;;;;;;16.80;15.10;;;14.70;82.00;;;;;;1722531;28;20319;-87
2022/03/05 09:45:06;;;;;;;16.97;15.17;;;14.80;81.50;;;;;;1722257;28;20680;-87
2022/03/05 09:45:57;;;;;;;16.90;15.23;;;14.90;81.40;;;;;;1722498;28;20233;-87
2022/03/05 09:46:50;;;;;;;17.15;15.43;;;15.00;81.40;;;;;;1722483;28;20209;-87
2022/03/05 09:47:42;;;;;;;16.10;13.98;;;15.10;81.00;;;;;;1722347;28;20232;-87
2022/03/05 09:48:34;;;;;;;16.38;14.68;;;15.30;80.50;;;;;;1722515;28;20201;-86
2022/03/05 09:49:27;;;;;;;15.60;14.10;;;15.40;80.10;;;;;;1729123;28;20208;-87
2022/03/05 09:50:19;;;;;;;16.40;14.80;;;15.50;79.70;;;;;;1728867;28;20295;-87
2022/03/05 09:51:10;;;;;;;15.65;14.20;;;15.60;79.40;;;;;;1729044;28;20208;-87
2022/03/05 09:52:03;;;;;;;15.37;13.87;;;15.70;78.70;;;;;;1729481;28;20205;-87
2022/03/05 09:52:54;;;;;;;16.48;14.70;;;15.70;78.70;;;;;;1729125;28;20212;-87
2022/03/05 09:53:46;;;;;;;16.37;14.70;;;15.80;78.70;;;;;;1729084;28;20231;-87
2022/03/05 09:54:37;;;;;;;16.27;14.68;;;15.90;78.60;;;;;;1729066;28;20494;-87
2022/03/05 09:55:30;;;;;;;16.23;14.70;;;16.10;78.50;;;;;;1729148;28;20196;-87
2022/03/05 09:56:21;;;;;;;17.48;15.20;;;16.20;78.20;;;;;;1729081;28;20474;-87
2022/03/05 09:57:15;;;;;;;16.73;15.02;;;16.30;77.90;;;;;;1729254;28;20271;-87
2022/03/05 09:58:06;;;;;;;17.13;15.52;;;16.40;77.70;;;;;;1728917;28;20215;-87
2022/03/05 09:58:58;;;;;;;15.87;14.33;;;16.50;77.30;;;;;;1725310;28;20197;-87
2022/03/05 09:59:48;;;;;;;16.63;14.93;;;16.60;77.20;;;;;;1728997;28;20719;-87
2022/03/05 10:00:40;;;;;;;17.10;15.50;;;16.60;77.00;;;;;;1729212;28;20700;-87
2022/03/05 10:01:32;;;;;;;17.85;16.05;;;16.70;76.70;;;;;;1728697;28;20212;-87
2022/03/05 10:02:24;;;;;;;18.10;16.20;;;16.80;76.50;;;;;;1728804;28;20200;-87
2022/03/05 10:03:15;;;;;;;17.20;15.60;;;16.80;76.40;;;;;;1728764;28;20586;-87
2022/03/05 10:04:19;;;;;;;17.38;15.50;;;16.90;76.50;;;;;;1728905;28;20295;-87
2022/03/05 10:05:15;;;;;;;17.00;15.20;;;16.90;75.80;;;;;;1728816;28;20244;-87
2022/03/05 10:06:17;;;;;;;15.80;14.18;;;16.90;75.70;;;;;;1728983;28;20203;-87
2022/03/05 10:07:14;;;;;;;15.60;14.10;;;16.90;75.40;;;;;;1728902;28;20201;-87
2022/03/05 10:08:08;;;;;;;15.63;14.02;;;16.90;75.10;;;;;;1728822;28;20204;-87
2022/03/05 10:09:00;;;;;;;15.65;14.05;;;16.90;75.10;;;;;;1724629;28;20290;-87
2022/03/05 10:10:07;;;;;;;16.40;14.80;;;16.90;75.30;;;;;;1721631;28;20248;-87
2022/03/05 10:11:06;;;;;;;16.25;14.75;;;16.90;74.90;;;;;;1722039;28;20545;-87
2022/03/05 10:11:57;;;;;;;15.45;13.95;;;16.90;75.10;;;;;;1721962;28;20206;-87
2022/03/05 10:12:49;;;;;;;16.07;14.57;;;16.90;75.10;;;;;;1721936;28;20197;-87
2022/03/05 10:13:42;;;;;;;18.13;14.70;;;17.00;75.10;;;;;;1722000;28;20232;-87
2022/03/05 10:14:32;;;;;;;15.85;14.20;;;17.00;75.10;;;;;;1721953;28;20719;-87
2022/03/05 10:15:24;;;;;;;17.10;14.90;;;17.00;75.20;;;;;;1721642;28;20653;-87
2022/03/05 10:16:28;;;;;;;16.58;14.95;;;17.10;75.30;;;;;;1721856;28;20236;-87
2022/03/05 10:17:20;;;;;;;14.65;13.25;;;17.10;75.10;;;;;;1721904;28;20197;-87
2022/03/05 10:18:11;;;;;;;16.55;14.98;;;17.20;74.80;;;;;;1721503;28;20209;-87
2022/03/05 10:19:17;;;;;;;16.40;14.80;;;17.20;74.40;;;;;;1725708;28;20715;-87
2022/03/05 10:20:08;;;;;;;16.73;13.95;;;17.20;74.30;;;;;;1728810;28;20447;-87
2022/03/05 10:21:02;;;;;;;15.60;14.00;;;17.20;74.30;;;;;;1729046;28;20184;-87
2022/03/05 10:21:58;;;;;;;16.63;14.88;;;17.20;74.00;;;;;;1728801;28;20223;-87
2022/03/05 10:23:04;;;;;;;15.60;14.00;;;17.30;74.00;;;;;;1728511;28;20235;-87
2022/03/05 10:24:06;;;;;;;14.73;13.23;;;17.30;74.00;;;;;;1728534;28;20254;-87
2022/03/05 10:24:58;;;;;;;15.65;14.15;;;17.40;73.90;;;;;;1728926;28;20703;-87